M I D A S
Marine Information and Data Acquisition System
Tripno 230 of the Zeeleeuw from 2002-03-26 07:41:28 to 2002-03-26 14:18:32
Back to CruiseResearch ActivitiesStationsMapUnderway DataData graphs

EquipmentUnitsComment
TimeDGPSUTC
LatitudeDGPSDM.mWGS84
LongitudeDGPSDM.mWGS84
TemperatureSBE03/SBE38deg celciusITS90
ConductivitySBE21S/mITS90
SalinitySBE21 Practical Salinity Units
ChlorophylAChelsea fluorimeterg/lCalibrated in Aceton
Missing or incorrect values are displayed as -999
Sea surface data collected by the RV Zeeleeuw from 2002-03-26 07:41:28 to 2002-03-26 14:18:32
Time Latitude Longitude Temperature Conductivity Salinity ChlorophylA
2002-03-26 07:42:30 51°13.688 2°55.905 19.261118 0.021079 0.106488  
2002-03-26 07:43:30 51°13.686 2°55.905 19.337995 0.021079 0.106481  
2002-03-26 07:44:31 51°13.691 2°55.872 19.600238 0.021079 0.106474  
2002-03-26 07:45:31 51°13.699 2°55.788 19.735501 0.021079 0.106466  
2002-03-26 07:46:30 51°13.693 2°55.718 19.642549 0.021079 0.106456  
2002-03-26 07:47:30 51°13.733 2°55.715 20.058961 0.021079 0.10646  
2002-03-26 07:48:30 51°13.821 2°55.653 19.856882 0.021079 0.106447  
2002-03-26 07:49:30 51°13.938 2°55.561 19.937402 0.021079 0.106441  
2002-03-26 07:50:30 51°14.069 2°55.467 19.931651 0.021079 0.106436  
2002-03-26 07:51:30 51°14.188 2°55.364 19.505476 0.021079 0.106428  
2002-03-26 07:52:29 51°14.307 2°55.182 19.668898 0.021079 0.106422  
2002-03-26 07:53:30 51°14.43 2°54.975 19.812144 0.021079 0.106409  
2002-03-26 07:54:30 51°14.585 2°54.805 19.470422 0.021079 0.106403  
2002-03-26 07:55:30 51°14.746 2°54.629 12.073773 0.021178 0.107243  
2002-03-26 07:56:30 51°14.921 2°54.482 10.342037 3.390789 30.024486  
2002-03-26 07:57:30 51°15.097 2°54.327 10.125284 3.397712 30.885466  
2002-03-26 07:58:30 51°15.286 2°54.156 10.058356 3.370068 30.845975  
2002-03-26 07:59:30 51°15.482 2°53.979 9.994549 3.366163 30.89503  
2002-03-26 08:00:30 51°15.679 2°53.799 10.081079 3.357649 30.871207  
2002-03-26 08:01:30 51°15.876 2°53.62 10.022967 3.354244 30.891695  
2002-03-26 08:02:30 51°16.072 2°53.44 8.97318 3.368268 31.058439  
2002-03-26 08:03:30 51°16.269 2°53.259 8.874234 3.373978 31.131125  
2002-03-26 08:04:29 51°16.46 2°53.089 8.932142 3.378285 31.198146  
2002-03-26 08:05:29 51°16.652 2°52.919 8.916501 3.412243 31.535293  
2002-03-26 08:06:30 51°16.846 2°52.747 8.89165 3.40433 31.49038  
2002-03-26 08:07:30 51°17.044 2°52.6 8.768731 3.394113 31.437684  
2002-03-26 08:08:30 51°17.245 2°52.463 8.62685 3.378788 31.367849  
2002-03-26 08:09:29 51°17.452 2°52.371 8.666455 3.374983 31.406434  
2002-03-26 08:10:30 51°17.673 2°52.34 8.663247 3.373581 31.41383  
2002-03-26 08:11:30 51°17.891 2°52.319 8.657645 3.380492 31.499846  
2002-03-26 08:12:30 51°18.109 2°52.312 8.691584 3.3847 31.549193  
2002-03-26 08:13:30 51°18.252 2°52.545 8.58957 3.389808 31.604954  
2002-03-26 08:14:30 51°18.374 2°52.835 8.651516 3.388807 31.625469  
2002-03-26 08:15:30 51°18.459 2°53.165 8.555385 3.385401 31.602717  
2002-03-26 08:16:30 51°18.546 2°53.493 8.539125 3.382797 31.597082  
2002-03-26 08:17:30 51°18.625 2°53.826 8.597334 3.378089 31.563753  
2002-03-26 08:18:30 51°18.707 2°54.158 8.547999 3.367171 31.469705  
2002-03-26 08:19:30 51°18.788 2°54.489 8.560085 3.359759 31.403148  
2002-03-26 08:20:30 51°18.865 2°54.823 10.098409 3.344635 31.268328  
2002-03-26 08:21:30 51°18.935 2°55.164 9.96898 3.336221 31.194979  
2002-03-26 08:22:30 51°19.007 2°55.505 9.457146 3.327307 31.112045  
2002-03-26 08:23:30 51°19.08 2°55.846 9.433447 3.313585 30.985801  
2002-03-26 08:24:30 51°19.154 2°56.188 9.146912 3.299864 30.858796  
2002-03-26 08:25:30 51°19.228 2°56.528 9.519828 3.283438 30.705898  
2002-03-26 08:26:30 51°19.303 2°56.869 9.59642 3.266513 30.537048  
2002-03-26 08:27:30 51°19.378 2°57.211 8.987949 3.252492 30.39192  
2002-03-26 08:28:30 51°19.452 2°57.554 9.494923 3.241075 30.269564  
2002-03-26 08:29:30 51°19.528 2°57.897 9.394451 3.233764 30.18268  
2002-03-26 08:30:30 51°19.602 2°58.242 8.777812 3.229157 30.127332  
2002-03-26 08:31:30 51°19.676 2°58.586 8.706083 3.219042 30.016573  
2002-03-26 08:32:30 51°19.752 2°58.932 9.296762 3.207426 29.895308  
2002-03-26 08:33:30 51°19.827 2°59.279 9.681171 3.201417 29.830548  
2002-03-26 08:34:30 51°19.905 2°59.625 9.212647 3.194107 29.755181  
2002-03-26 08:35:30 51°19.995 2°59.966 9.554735 3.184093 29.658912  
2002-03-26 08:36:30 51°20.083 3°0.311 9.437942 3.180889 29.632818  
2002-03-26 08:37:30 51°20.171 3°0.656 9.46126 3.179887 29.623883  
2002-03-26 08:38:29 51°20.258 3°0.997 9.571403 3.173979 29.573371  
2002-03-26 08:39:30 51°20.349 3°1.352 9.52375 3.171476 29.554482  
2002-03-26 08:40:30 51°20.442 3°1.694 9.588208 3.167271 29.518728  
2002-03-26 08:41:30 51°20.537 3°2.033 9.386355 3.161663 29.471961  
2002-03-26 08:42:30 51°20.633 3°2.371 9.350457 3.154253 29.400392  
2002-03-26 08:43:30 51°20.73 3°2.712 9.306765 3.151249 29.368738  
2002-03-26 08:44:30 51°20.829 3°3.053 9.534662 3.150048 29.359104  
2002-03-26 08:45:30 51°20.932 3°3.391 9.263993 3.143239 29.288931  
2002-03-26 08:46:29 51°21.033 3°3.724 8.401594 3.140235 29.258665  
2002-03-26 08:47:30 51°21.136 3°4.07 8.325884 3.135629 29.212582  
2002-03-26 08:48:30 51°21.238 3°4.413 8.401161 3.129621 29.151384  
2002-03-26 08:49:30 51°21.34 3°4.755 8.39919 3.127819 29.13487  
2002-03-26 08:50:30 51°21.443 3°5.098 8.395681 3.129721 29.154464  
2002-03-26 08:51:30 51°21.544 3°5.441 8.35028 3.127018 29.131397  
2002-03-26 08:52:29 51°21.645 3°5.779 8.301719 3.107994 28.940958  
2002-03-26 08:53:30 51°21.735 3°6.137 8.381112 3.083063 28.689876  
2002-03-26 08:54:30 51°21.827 3°6.491 8.300082 3.058033 28.435313  
2002-03-26 08:55:30 51°21.917 3°6.848 8.292329 3.035908 28.2075  
2002-03-26 08:56:30 51°21.979 3°7.221 8.318423 3.020491 28.053963  
2002-03-26 08:57:30 51°22.04 3°7.596 8.473902 3.006276 27.920004  
2002-03-26 08:58:30 51°22.127 3°7.952 8.395296 2.992962 27.787448  
2002-03-26 08:59:30 51°22.315 3°8.187 8.401305 2.985153 27.706147  
2002-03-26 09:00:30 51°22.507 3°8.422 8.424616 2.977546 27.628229  
2002-03-26 09:01:30 51°22.659 3°8.722 8.340658 2.966735 27.521425  
2002-03-26 09:02:30 51°22.762 3°9.07 8.447102 2.969237 27.489041  
2002-03-26 09:03:30 51°22.803 3°9.449 9.778661 2.95272 27.30569  
2002-03-26 09:04:30 51°22.832 3°9.824 9.548313 2.946314 27.235249  
2002-03-26 09:05:30 51°22.859 3°10.208 9.155608 2.930999 27.080406  
2002-03-26 09:06:29 51°22.871 3°10.596 9.231254 2.959026 27.370677  
2002-03-26 09:07:30 51°22.863 3°10.996 9.278032 2.953721 27.313987  
2002-03-26 09:08:30 51°22.858 3°11.394 9.240033 2.935203 27.120715  
2002-03-26 09:09:30 51°22.851 3°11.792 9.16435 2.936705 27.137285  
2002-03-26 09:10:29 51°22.843 3°12.183 9.203532 2.932501 27.092541  
2002-03-26 09:11:30 51°22.833 3°12.591 9.408556 2.936604 27.131826  
2002-03-26 09:12:30 51°22.831 3°12.995 9.308804 2.927796 27.043345  
2002-03-26 09:13:30 51°22.846 3°13.398 9.424978 2.904175 26.812871  
2002-03-26 09:14:30 51°22.856 3°13.805 9.594391 2.903174 26.798298  
2002-03-26 09:15:30 51°22.873 3°14.209 9.208232 2.905176 26.810526  
2002-03-26 09:16:30 51°22.902 3°14.612 9.175608 2.908579 26.842646  
2002-03-26 09:17:30 51°22.932 3°15.018 9.415466 2.90958 26.849068  
2002-03-26 09:18:30 51°22.976 3°15.421 9.456578 2.911181 26.862853  
2002-03-26 09:19:30 51°23.025 3°15.823 9.266412 2.907277 26.819382  
2002-03-26 09:20:30 51°23.067 3°16.228 9.428148 2.893565 26.677464  
2002-03-26 09:21:29 51°23.159 3°16.584 9.543873 2.882156 26.557809  
2002-03-26 09:22:30 51°23.374 3°16.749 9.027001 2.852231 26.260216  
2002-03-26 09:23:30 51°23.604 3°16.848 9.469441 2.842624 26.16033  
2002-03-26 09:24:30 51°23.835 3°16.941 9.383041 2.884858 26.583396  
2002-03-26 09:25:30 51°24.067 3°17.044 9.698089 2.88786 26.618246  
2002-03-26 09:26:29 51°24.294 3°17.152 9.381052 2.874049 26.477339  
2002-03-26 09:27:30 51°24.53 3°17.234 9.455065 2.865742 26.394243  
2002-03-26 09:28:29 51°24.756 3°17.278 9.662551 2.855734 26.296982  
2002-03-26 09:29:30 51°24.986 3°17.308 9.437232 2.881555 26.580875  
2002-03-26 09:30:30 51°25.203 3°17.273 8.375245 2.954522 27.346449  
2002-03-26 09:31:30 51°25.382 3°17.116 8.48941 2.95192 27.326269  
2002-03-26 09:32:30 51°25.523 3°16.885 8.328001 3.008978 27.924806  
2002-03-26 09:33:30 51°25.652 3°16.633 8.361633 3.068346 28.553307  
2002-03-26 09:34:29 51°25.786 3°16.393 8.38919 3.076556 28.647132  
2002-03-26 09:35:30 51°25.924 3°16.144 8.262708 3.086768 28.758972  
2002-03-26 09:36:30 51°26.059 3°15.898 8.335798 3.101486 28.915987  
2002-03-26 09:37:30 51°26.192 3°15.655 8.25235 3.115304 29.063874  
2002-03-26 09:38:30 51°26.324 3°15.411 8.325451 3.130423 29.222605  
2002-03-26 09:39:30 51°26.458 3°15.163 8.321263 3.144041 29.366654  
2002-03-26 09:40:30 51°26.592 3°14.908 8.278749 3.165469 29.595751  
2002-03-26 09:41:30 51°26.726 3°14.652 8.327665 3.193207 29.881406  
2002-03-26 09:42:30 51°26.86 3°14.397 8.340369 3.228357 30.236447  
2002-03-26 09:43:30 51°26.993 3°14.143 8.275955 3.252493 30.473239  
2002-03-26 09:44:29 51°27.123 3°13.893 8.325018 3.266313 30.60734  
2002-03-26 09:45:30 51°27.256 3°13.635 8.334065 3.274526 30.681791  
2002-03-26 09:46:30 51°27.385 3°13.381 8.335846 3.280535 30.741284  
2002-03-26 09:47:29 51°27.512 3°13.131 9.200351 3.285643 30.793592  
2002-03-26 09:48:30 51°27.643 3°12.873 9.203057 3.286544 30.799339  
2002-03-26 09:49:30 51°27.772 3°12.618 9.16834 3.289749 30.830446  
2002-03-26 09:50:30 51°27.898 3°12.358 9.339371 3.295758 30.885606  
2002-03-26 09:51:30 51°28.024 3°12.096 9.274617 3.294857 30.865392  
2002-03-26 09:52:30 51°28.15 3°11.833 9.288749 3.291351 30.815288  
2002-03-26 09:53:30 51°28.277 3°11.569 9.370255 3.295157 30.846099  
2002-03-26 09:54:30 51°28.406 3°11.303 9.212885 3.283639 30.728109  
2002-03-26 09:55:30 51°28.535 3°11.033 9.318425 3.283539 30.76021  
2002-03-26 09:56:30 51°28.666 3°10.762 9.321459 3.272522 30.653811  
2002-03-26 09:57:30 51°28.798 3°10.49 9.416271 3.266113 30.582296  
2002-03-26 09:58:31 51°28.905 3°10.193 9.353962 3.266713 30.575623  
2002-03-26 09:59:30 51°28.856 3°9.871 9.444706 3.246684 30.376617  
2002-03-26 10:00:30 51°28.793 3°9.539 9.227362 3.234666 30.27912  
2002-03-26 10:01:30 51°28.72 3°9.212 9.377595 3.254095 30.459121  
2002-03-26 10:02:30 51°28.638 3°8.89 9.669906 3.253394 30.474722  
2002-03-26 10:03:30 51°28.552 3°8.574 9.388817 3.251892 30.4806  
2002-03-26 10:04:30 51°28.464 3°8.264 9.311221 3.260304 30.562196  
2002-03-26 10:05:30 51°28.377 3°7.954 9.756679 3.264411 30.612018  
2002-03-26 10:06:30 51°28.286 3°7.646 9.09828 3.26371 30.625599  
2002-03-26 10:07:30 51°28.194 3°7.34 9.146627 3.265312 30.636492  
2002-03-26 10:08:30 51°28.102 3°7.035 9.325914 3.27062 30.678681  
2002-03-26 10:09:30 51°28.007 3°6.733 9.099136 3.279133 30.751256  
2002-03-26 10:10:30 51°27.913 3°6.431 9.50414 3.28354 30.791257  
2002-03-26 10:11:30 51°27.787 3°6.168 9.237756 3.295458 30.899875  
2002-03-26 10:12:30 51°27.592 3°6.043 9.245301 3.290049 30.846588  
2002-03-26 10:13:30 51°27.392 3°6.126 9.429284 3.293955 30.878472  
2002-03-26 10:14:30 51°27.262 3°6.428 8.290163 3.279634 30.744187  
2002-03-26 10:15:30 51°27.13 3°6.737 8.404238 3.293956 30.882819  
2002-03-26 10:16:30 51°26.993 3°7.04 8.454932 3.302469 30.949489  
2002-03-26 10:17:30 51°26.851 3°7.338 8.310144 3.280134 30.747945  
2002-03-26 10:18:30 51°26.709 3°7.638 8.303452 3.265212 30.603088  
2002-03-26 10:19:30 51°26.567 3°7.94 8.290837 3.266213 30.624988  
2002-03-26 10:20:30 51°26.424 3°8.242 8.242327 3.266814 30.641303  
2002-03-26 10:21:30 51°26.282 3°8.546 8.330119 3.276329 30.745947  
2002-03-26 10:22:30 51°26.141 3°8.849 8.32213 3.284942 30.828258  
2002-03-26 10:23:30 51°26 3°9.151 8.325499 3.310682 31.0683  
2002-03-26 10:24:30 51°25.858 3°9.452 8.423559 3.313587 31.100699  
2002-03-26 10:25:30 51°25.715 3°9.753 8.306244 3.300366 30.974851  
2002-03-26 10:26:29 51°25.575 3°10.049 8.306148 3.296059 30.930067  
2002-03-26 10:27:30 51°25.421 3°10.342 8.300948 3.287646 30.843333  
2002-03-26 10:28:30 51°25.237 3°10.572 8.295411 3.275928 30.726621  
2002-03-26 10:29:30 51°25.03 3°10.736 8.339455 3.270019 30.665955  
2002-03-26 10:30:30 51°24.814 3°10.74 8.342342 3.270019 30.663794  
2002-03-26 10:31:30 51°24.679 3°10.505 9.283486 3.27052 30.665395  
2002-03-26 10:32:30 51°24.603 3°10.221 9.261289 3.248286 30.428888  
2002-03-26 10:33:30 51°24.619 3°9.915 9.586273 3.117005 29.02557  
2002-03-26 10:34:30 51°24.662 3°9.601 9.417549 3.118707 29.040372  
2002-03-26 10:35:30 51°24.722 3°9.283 9.207758 3.185296 29.738041  
2002-03-26 10:36:30 51°24.807 3°8.977 9.281209 3.268817 30.61393  
2002-03-26 10:37:30 51°24.899 3°8.675 9.11844 3.286744 30.802863  
2002-03-26 10:38:29 51°24.988 3°8.377 9.193371 3.295859 30.906213  
2002-03-26 10:39:30 51°25.082 3°8.069 9.387491 3.298763 30.939297  
2002-03-26 10:40:29 51°25.175 3°7.77 9.47573 3.305774 31.006349  
2002-03-26 10:41:30 51°25.271 3°7.462 9.362867 3.315289 31.099431  
2002-03-26 10:42:30 51°25.369 3°7.159 9.171475 3.312785 31.070485  
2002-03-26 10:43:30 51°25.469 3°6.853 9.351689 3.302669 30.960279  
2002-03-26 10:44:30 51°25.568 3°6.544 9.333638 3.309179 31.001744  
2002-03-26 10:45:30 51°25.668 3°6.235 9.613077 3.313786 31.036493  
2002-03-26 10:46:30 51°25.765 3°5.926 9.416318 3.325505 31.150136  
2002-03-26 10:47:30 51°25.859 3°5.614 9.295103 3.333918 31.241895  
2002-03-26 10:48:29 51°25.953 3°5.308 9.181925 3.339127 31.298205  
2002-03-26 10:49:30 51°26.053 3°4.992 9.52682 3.34103 31.316515  
2002-03-26 10:50:29 51°26.106 3°4.669 9.720232 3.343133 31.342043  
2002-03-26 10:51:30 51°26.155 3°4.331 9.329326 3.345737 31.369848  
2002-03-26 10:52:29 51°26.211 3°4.007 9.606613 3.33532 31.258658  
2002-03-26 10:53:30 51°26.258 3°3.673 9.232678 3.324403 31.142343  
2002-03-26 10:54:29 51°26.301 3°3.346 9.587453 3.319194 31.077356  
2002-03-26 10:55:30 51°26.344 3°3.007 9.590851 3.369476 31.598991  
2002-03-26 10:56:30 51°26.386 3°2.672 9.334206 3.393016 31.835003  
2002-03-26 10:57:29 51°26.429 3°2.344 8.598389 3.408442 31.982902  
2002-03-26 10:58:30 51°26.477 3°2.009 8.452242 3.418059 32.077046  
2002-03-26 10:59:30 51°26.516 3°1.68 8.617268 3.425272 32.145404  
2002-03-26 11:00:30 51°26.554 3°1.346 8.542483 3.431182 32.2017  
2002-03-26 11:01:30 51°26.592 3°1.011 8.472797 3.434788 32.234746  
2002-03-26 11:02:30 51°26.632 3°0.676 8.512929 3.442301 32.302449  
2002-03-26 11:03:30 51°26.67 3°0.338 8.431968 3.437493 32.253873  
2002-03-26 11:04:30 51°26.703 2°60 8.463817 3.428978 32.171222  
2002-03-26 11:05:30 51°26.735 2°59.661 8.424136 3.417458 32.054291  
2002-03-26 11:06:30 51°26.767 2°59.325 8.428653 3.409945 31.973115  
2002-03-26 11:07:30 51°26.8 2°58.988 8.607829 3.40744 31.943328  
2002-03-26 11:08:30 51°26.834 2°58.652 8.538933 3.42437 32.099982  
2002-03-26 11:09:30 51°26.867 2°58.317 8.495794 3.425471 32.106196  
2002-03-26 11:10:30 51°26.9 2°57.982 8.497426 3.425772 32.110072  
2002-03-26 11:11:30 51°26.936 2°57.645 8.495938 3.427675 32.130623  
2002-03-26 11:12:30 51°26.966 2°57.309 8.623018 3.445006 32.310992  
2002-03-26 11:13:30 51°26.996 2°56.972 8.594506 3.485679 32.723392  
2002-03-26 11:14:30 51°27.027 2°56.638 8.52123 3.494696 32.809  
2002-03-26 11:15:29 51°27.058 2°56.309 8.487777 3.494996 32.809836  
2002-03-26 11:16:30 51°27.091 2°55.966 9.503289 3.493794 32.792707  
2002-03-26 11:17:30 51°27.127 2°55.629 9.542456 3.494095 32.794309  
2002-03-26 11:18:30 51°27.172 2°55.296 9.742319 3.498703 32.837762  
2002-03-26 11:19:30 51°27.211 2°54.964 9.437516 3.501408 32.8629  
2002-03-26 11:20:30 51°27.255 2°54.633 9.628079 3.507319 32.922234  
2002-03-26 11:21:30 51°27.36 2°54.337 9.5143 3.507119 32.918608  
2002-03-26 11:22:29 51°27.549 2°54.145 9.648265 3.514633 32.991589  
2002-03-26 11:23:29 51°27.742 2°53.951 9.571498 3.530462 33.145923  
2002-03-26 11:24:29 51°27.933 2°53.754 9.75602 3.531364 33.156878  
2002-03-26 11:25:30 51°28.129 2°53.561 9.743308 3.531865 33.165973  
2002-03-26 11:26:29 51°28.323 2°53.383 9.504707 3.533168 33.188081  
2002-03-26 11:27:29 51°28.517 2°53.197 8.999191 3.533669 33.201832  
2002-03-26 11:28:30 51°28.713 2°53.009 9.192516 3.53447 33.210202  
2002-03-26 11:29:30 51°28.907 2°52.829 9.317904 3.538077 33.247871  
2002-03-26 11:30:30 51°29.1 2°52.649 9.751595 3.541083 33.272277  
2002-03-26 11:31:30 51°29.294 2°52.468 9.412532 3.54469 33.299847  
2002-03-26 11:32:30 51°29.42 2°52.232 9.305722 3.546693 33.316887  
2002-03-26 11:33:30 51°29.321 2°51.966 9.634353 3.551102 33.354366  
2002-03-26 11:34:30 51°29.23 2°51.678 9.414472 3.556011 33.384614  
2002-03-26 11:35:30 51°29.103 2°51.441 9.381431 3.557614 33.392008  
2002-03-26 11:36:30 51°28.913 2°51.315 9.73389 3.559518 33.407982  
2002-03-26 11:37:30 51°28.712 2°51.236 9.655008 3.56082 33.419238  
2002-03-26 11:38:30 51°28.542 2°51.059 9.381762 3.560519 33.412989  
2002-03-26 11:39:29 51°28.477 2°50.767 9.307192 3.558716 33.390286  
2002-03-26 11:40:30 51°28.474 2°50.436 9.348041 3.558816 33.393664  
2002-03-26 11:41:30 51°28.534 2°50.115 9.505699 3.561421 33.416172  
2002-03-26 11:42:30 51°28.598 2°49.796 9.509905 3.563525 33.436564  
2002-03-26 11:43:30 51°28.649 2°49.476 8.655491 3.565529 33.455133  
2002-03-26 11:44:30 51°28.659 2°49.15 8.619185 3.565128 33.450173  
2002-03-26 11:45:29 51°28.645 2°48.834 8.667987 3.568835 33.484171  
2002-03-26 11:46:30 51°28.601 2°48.515 8.630539 3.572042 33.510601  
2002-03-26 11:47:30 51°28.484 2°48.272 8.669567 3.57124 33.50224  
2002-03-26 11:48:31 51°28.292 2°48.357 8.665593 3.569537 33.487591  
2002-03-26 11:49:30 51°28.105 2°48.516 8.584584 3.567733 33.468779  
2002-03-26 11:50:30 51°27.912 2°48.673 8.620095 3.565429 33.448637  
2002-03-26 11:51:30 51°27.723 2°48.848 8.583674 3.565429 33.450194  
2002-03-26 11:52:30 51°27.528 2°49.018 8.653815 3.563826 33.434251  
2002-03-26 11:53:29 51°27.336 2°49.185 8.620478 3.56102 33.406547  
2002-03-26 11:54:30 51°27.136 2°49.353 8.703595 3.560619 33.396925  
2002-03-26 11:55:29 51°26.943 2°49.503 8.675503 3.560018 33.382887  
2002-03-26 11:56:30 51°26.741 2°49.669 8.723688 3.56082 33.382699  
2002-03-26 11:57:30 51°26.55 2°49.85 8.613004 3.56112 33.378067  
2002-03-26 11:58:30 51°26.362 2°50.031 8.649409 3.559918 33.363988  
2002-03-26 11:59:30 51°26.178 2°50.215 8.690197 3.558014 33.344929  
2002-03-26 12:00:30 51°25.98 2°50.312 9.240603 3.55591 33.32146  
2002-03-26 12:01:30 51°25.852 2°50.1 9.600054 3.554006 33.290019  
2002-03-26 12:02:30 51°25.759 2°49.821 9.640908 3.549898 33.243386  
2002-03-26 12:03:30 51°25.662 2°49.546 9.533056 3.548696 33.225466  
2002-03-26 12:04:29 51°25.567 2°49.276 9.619635 3.547493 33.20601  
2002-03-26 12:05:29 51°25.468 2°49.003 9.432217 3.547193 33.195943  
2002-03-26 12:06:29 51°25.368 2°48.729 9.477716 3.546792 33.185608  
2002-03-26 12:07:29 51°25.269 2°48.45 9.604537 3.549497 33.206033  
2002-03-26 12:08:29 51°25.164 2°48.174 10.107587 3.552403 33.229306  
2002-03-26 12:09:29 51°25.059 2°47.898 10.002522 3.553505 33.233824  
2002-03-26 12:10:30 51°24.958 2°47.612 9.738458 3.554707 33.239382  
2002-03-26 12:11:30 51°24.849 2°47.336 9.586131 3.55631 33.252188  
2002-03-26 12:12:30 51°24.743 2°47.058 9.703366 3.557212 33.258475  
2002-03-26 12:13:29 51°24.635 2°46.786 9.512977 3.557312 33.257974  
2002-03-26 12:14:30 51°24.612 2°46.474 9.868063 3.558113 33.260905  
2002-03-26 12:15:30 51°24.792 2°46.291 9.63256 3.559215 33.266187  
2002-03-26 12:16:30 51°24.989 2°46.119 9.75329 3.561219 33.293183  
2002-03-26 12:17:30 51°25.19 2°45.959 9.668916 3.565327 33.333562  
2002-03-26 12:18:30 51°25.394 2°45.804 9.557852 3.565428 33.346975  
2002-03-26 12:19:30 51°25.598 2°45.648 9.580656 3.564226 33.360011  
2002-03-26 12:20:29 51°25.8 2°45.496 9.769389 3.564827 33.376341  
2002-03-26 12:21:29 51°26.006 2°45.345 9.734314 3.56643 33.398458  
2002-03-26 12:22:29 51°26.207 2°45.181 9.929364 3.568835 33.419614  
2002-03-26 12:23:30 51°26.414 2°45.025 9.697147 3.573243 33.463964  
2002-03-26 12:24:30 51°26.615 2°44.867 9.266364 3.57665 33.500996  
2002-03-26 12:25:30 51°26.819 2°44.712 9.341787 3.579155 33.533318  
2002-03-26 12:26:29 51°27.015 2°44.553 9.257446 3.584165 33.59098  
2002-03-26 12:27:30 51°27.174 2°44.323 9.531639 3.587071 33.625954  
2002-03-26 12:28:30 51°27.153 2°44.005 8.834374 3.588273 33.637707  
2002-03-26 12:29:30 51°27.082 2°43.69 8.682874 3.589175 33.639291  
2002-03-26 12:30:30 51°27.015 2°43.373 8.721297 3.589275 33.638772  
2002-03-26 12:31:30 51°26.942 2°43.059 8.684597 3.589275 33.634865  
2002-03-26 12:32:30 51°26.87 2°42.745 8.651899 3.589275 33.633303  
2002-03-26 12:33:30 51°26.798 2°42.434 8.773367 3.589776 33.633055  
2002-03-26 12:34:30 51°26.728 2°42.123 8.778195 3.590677 33.640107  
2002-03-26 12:35:30 51°26.659 2°41.81 8.743201 3.591279 33.63856  
2002-03-26 12:36:29 51°26.58 2°41.511 8.828548 3.59218 33.64561  
2002-03-26 12:37:30 51°26.488 2°41.21 8.750804 3.59228 33.642749  
2002-03-26 12:38:30 51°26.376 2°40.935 8.713308 3.592481 33.643274  
2002-03-26 12:39:30 51°26.253 2°40.672 8.673684 3.592681 33.643019  
2002-03-26 12:40:30 51°26.062 2°40.59 8.754294 3.592681 33.645362  
2002-03-26 12:41:29 51°25.869 2°40.725 8.792578 3.59228 33.642749  
2002-03-26 12:42:30 51°25.663 2°40.876 8.665785 3.590477 33.624745  
2002-03-26 12:43:30 51°25.464 2°41.021 8.703787 3.587872 33.603074  
2002-03-26 12:44:29 51°25.262 2°41.151 9.93359 3.586068 33.585069  
2002-03-26 12:45:30 51°25.056 2°41.297 9.731535 3.593683 33.6277  
2002-03-26 12:46:30 51°24.856 2°41.439 9.748723 3.599494 33.66945  
2002-03-26 12:47:30 51°24.66 2°41.582 9.763646 3.604304 33.700748  
2002-03-26 12:48:29 51°24.468 2°41.72 9.804351 3.607009 33.717172  
2002-03-26 12:49:30 51°24.265 2°41.864 9.486131 3.606608 33.714566  
2002-03-26 12:50:30 51°24.066 2°42.018 9.710151 3.603803 33.693977  
2002-03-26 12:51:29 51°23.871 2°42.163 9.588255 3.601799 33.682499  
2002-03-26 12:52:29 51°23.667 2°42.275 9.737422 3.599895 33.666597  
2002-03-26 12:53:30 51°23.457 2°42.28 9.581647 3.598592 33.656948  
2002-03-26 12:54:30 51°23.283 2°42.095 9.663117 3.598091 33.647058  
2002-03-26 12:55:29 51°23.111 2°41.91 9.895644 3.597791 33.641593  
2002-03-26 12:56:30 51°22.94 2°41.706 9.546282 3.597791 33.639255  
2002-03-26 12:57:30 51°22.774 2°41.5 9.893389 3.596588 33.630647  
2002-03-26 12:58:30 51°22.606 2°41.289 9.823118 3.595486 33.618406  
2002-03-26 12:59:30 51°22.437 2°41.083 9.62907 3.594985 33.612418  
2002-03-26 13:00:30 51°22.271 2°40.869 9.679333 3.595085 33.608788  
2002-03-26 13:01:30 51°22.101 2°40.664 9.694744 3.59729 33.620805  
2002-03-26 13:02:30 51°21.934 2°40.45 9.632466 3.599995 33.634909  
2002-03-26 13:03:30 51°21.78 2°40.212 10.063276 3.6029 33.646417  
2002-03-26 13:04:30 51°21.623 2°39.979 9.565265 3.604303 33.655539  
2002-03-26 13:05:30 51°21.453 2°39.767 9.376459 3.605004 33.65971  
2002-03-26 13:06:30 51°21.286 2°39.546 9.651188 3.605606 33.663619  
2002-03-26 13:07:30 51°21.099 2°39.407 10.069836 3.605606 33.663619  
2002-03-26 13:08:30 51°20.896 2°39.523 9.881831 3.605305 33.664389  
2002-03-26 13:09:30 51°20.702 2°39.688 10.155003 3.605605 33.661284  
2002-03-26 13:10:30 51°20.64 2°40.013 10.005055 3.606307 33.66701  
2002-03-26 13:11:30 51°20.588 2°40.366 8.837334 3.605004 33.648817  
2002-03-26 13:12:30 51°20.528 2°40.716 8.823104 3.603 33.633455  
2002-03-26 13:13:29 51°20.476 2°41.07 8.837191 3.600997 33.633645  
2002-03-26 13:14:30 51°20.418 2°41.43 8.842157 3.596287 33.597165  
2002-03-26 13:15:30 51°20.362 2°41.783 8.841775 3.598391 33.612805  
2002-03-26 13:16:30 51°20.305 2°42.135 8.796496 3.598191 33.6115  
2002-03-26 13:17:30 51°20.245 2°42.484 8.882918 3.596788 33.605481  
2002-03-26 13:18:30 51°20.185 2°42.83 8.848173 3.596488 33.594582  
2002-03-26 13:19:30 51°20.123 2°43.178 8.889503 3.595586 33.580551  
2002-03-26 13:20:30 51°20.069 2°43.531 8.810781 3.595385 33.578469  
2002-03-26 13:21:30 51°19.994 2°43.875 8.815319 3.595786 33.580301  
2002-03-26 13:22:30 51°19.916 2°44.214 8.774419 3.596488 33.586032  
2002-03-26 13:23:30 51°19.838 2°44.556 8.975848 3.596788 33.5876  
2002-03-26 13:24:30 51°19.765 2°44.898 8.83934 3.595285 33.562674  
2002-03-26 13:25:30 51°19.682 2°45.238 9.027334 3.592079 33.52086  
2002-03-26 13:26:30 51°19.599 2°45.577 8.85815 3.58757 33.486459  
2002-03-26 13:27:30 51°19.515 2°45.909 8.899521 3.583762 33.446942  
2002-03-26 13:28:30 51°19.429 2°46.242 9.912976 3.579754 33.401489  
2002-03-26 13:29:30 51°19.34 2°46.575 10.031078 3.575045 33.351865  
2002-03-26 13:30:30 51°19.239 2°46.899 10.188403 3.57234 33.323036  
2002-03-26 13:31:30 51°19.148 2°47.232 9.381478 3.572039 33.317607  
2002-03-26 13:32:30 51°19.049 2°47.554 9.742319 3.571238 33.304675  
2002-03-26 13:33:30 51°18.946 2°47.873 9.797577 3.565226 33.225455  
2002-03-26 13:34:30 51°18.845 2°48.187 9.881079 3.55701 33.128871  
2002-03-26 13:35:30 51°18.743 2°48.502 10.051233 3.547692 33.024036  
2002-03-26 13:36:30 51°18.64 2°48.809 10.063604 3.546289 32.994291  
2002-03-26 13:37:30 51°18.529 2°49.113 9.869848 3.550797 33.033294  
2002-03-26 13:38:30 51°18.418 2°49.416 9.712176 3.555106 33.079372  
2002-03-26 13:39:30 51°18.302 2°49.721 9.901704 3.561017 33.139754  
2002-03-26 13:40:30 51°18.191 2°50.035 9.744438 3.566027 33.196947  
2002-03-26 13:41:30 51°18.081 2°50.341 9.974048 3.569233 33.234732  
2002-03-26 13:42:30 51°17.971 2°50.651 9.976675 3.569333 33.236536  
2002-03-26 13:43:30 51°17.857 2°50.957 10.035719 3.569734 33.231481  
2002-03-26 13:44:30 51°17.749 2°51.26 10.015184 3.571738 33.235352  
2002-03-26 13:45:30 51°17.638 2°51.565 9.521009 3.574242 33.248233  
2002-03-26 13:46:30 51°17.523 2°51.864 9.671697 3.575144 33.255259  
2002-03-26 13:47:30 51°17.36 2°52.095 10.060933 3.571437 33.21233  
2002-03-26 13:48:30 51°17.169 2°52.283 9.992438 3.564824 33.139391  
2002-03-26 13:49:30 51°16.978 2°52.453 9.502344 3.572038 33.210128  
2002-03-26 13:50:30 51°16.782 2°52.623 9.87577 3.569332 33.169177  
2002-03-26 13:51:30 51°16.589 2°52.797 10.322438 3.563721 33.083034  
2002-03-26 13:52:30 51°16.393 2°52.969 9.891651 3.550095 32.919744  
2002-03-26 13:53:30 51°16.194 2°53.144 10.09218 3.536669 32.759587  
2002-03-26 13:54:30 51°15.997 2°53.316 10.130761 3.527251 32.655922  
2002-03-26 13:55:30 51°15.797 2°53.482 9.977332 3.519236 32.574238  
2002-03-26 13:56:30 51°15.601 2°53.658 9.136076 3.513124 32.509164  
2002-03-26 13:57:30 51°15.405 2°53.819 9.259012 3.507614 32.440613  
2002-03-26 13:58:30 51°15.208 2°53.985 9.576738 0.059256 0.415267  
2002-03-26 13:59:30 51°15.032 2°54.136 9.688806 0.059946 0.419605  
2002-03-26 14:00:30 51°14.921 2°54.265 9.805856 0.064387 0.451082  
2002-03-26 14:01:29 51°14.78 2°54.437 9.869285 0.061722 0.430775  
2002-03-26 14:02:28 51°14.617 2°54.636 10.049218 0.060736 0.422661  
2002-03-26 14:03:30 51°14.456 2°54.85 10.175821 0.060637 0.420974  
2002-03-26 14:04:30 51°14.347 2°55.084 10.298399 0.060538 0.419277  
2002-03-26 14:05:29 51°14.258 2°55.259 10.399913 0.061328 0.423878  
2002-03-26 14:06:30 51°14.149 2°55.387 10.496243 0.06192 0.427065  
2002-03-26 14:07:30 51°14.032 2°55.47 10.638893 0.060933 0.418968  
2002-03-26 14:08:31 51°13.924 2°55.548 10.737655 0.059354 0.406699  
2002-03-26 14:09:30 51°13.835 2°55.623 10.998141 0.058071 0.395141  
2002-03-26 14:10:30 51°13.771 2°55.696 11.024558 0.056789 0.38625  
2002-03-26 14:11:30 51°13.729 2°55.761 11.127306 0.055605 0.377047  
2002-03-26 14:12:30 51°13.707 2°55.818 11.151782 0.054519 0.368588  
2002-03-26 14:13:30 51°13.694 2°55.878 11.27968 0.053434 0.360085  
2002-03-26 14:14:29 51°13.688 2°55.903 11.509393 0.052546 0.352902  
2002-03-26 14:15:30 51°13.687 2°55.906 11.555807 0.051757 0.346749  
2002-03-26 14:16:30 51°13.688 2°55.907 11.627953 0.050869 0.339821  
2002-03-26 14:17:30 51°13.688 2°55.907 11.865623 0.049981 0.332355  
2002-03-26 14:18:30 51°13.687 2°55.906 11.907779 0.04929 0.327327